KEWN

Coastal Carolina Regional Airport

Airport
ICAO code
KEWN
IATA Code
EWN
Summary
ICAO Region
NAM
ICAO Territory
Location

New Bern, North Carolina

Serving
New Bern
Elevation
18 ft
Coordinates
35° 4' 24" N , 77° 2' 32" W
KCC
Airport WX
Tropical Revolving Storm
Metar
KEWN 181654Z 21011G19KT 10SM SCT040 BKN050 32/23 A2997 RMK AO2 SLP150 T03220233

Coastal Carolina Regional Airport is a public airport located 3 nm southeast of central business district of New Bern, a town in Craven County, North Carolina, USA.

 

Airport map

Aerial View

SKYbrary Partners:

Safety knowledge contributed by: